sensor_id;sensor_type;location;lat;lon;timestamp;temperature;humidity
70076;DHT22;63241;51.056;3.698;2023-04-03T00:01:07;3.70;99.90
70076;DHT22;63241;51.056;3.698;2023-04-03T00:03:35;3.80;99.90
70076;DHT22;63241;51.056;3.698;2023-04-03T00:06:03;3.80;99.90
70076;DHT22;63241;51.056;3.698;2023-04-03T00:08:33;3.70;99.90
70076;DHT22;63241;51.056;3.698;2023-04-03T00:11:01;3.70;99.90
70076;DHT22;63241;51.056;3.698;2023-04-03T00:13:29;3.70;99.90
70076;DHT22;63241;51.056;3.698;2023-04-03T00:15:57;3.80;99.90
70076;DHT22;63241;51.056;3.698;2023-04-03T00:18:24;3.80;99.90
70076;DHT22;63241;51.056;3.698;2023-04-03T00:20:52;3.80;99.90
70076;DHT22;63241;51.056;3.698;2023-04-03T00:23:20;3.80;99.90
70076;DHT22;63241;51.056;3.698;2023-04-03T00:25:50;3.80;99.90
70076;DHT22;63241;51.056;3.698;2023-04-03T00:28:18;3.90;99.90
70076;DHT22;63241;51.056;3.698;2023-04-03T00:30:46;3.80;99.90
70076;DHT22;63241;51.056;3.698;2023-04-03T00:33:14;3.90;99.90
70076;DHT22;63241;51.056;3.698;2023-04-03T00:35:42;3.90;99.90
70076;DHT22;63241;51.056;3.698;2023-04-03T00:38:10;3.90;99.90
70076;DHT22;63241;51.056;3.698;2023-04-03T00:40:41;3.90;99.90
70076;DHT22;63241;51.056;3.698;2023-04-03T00:43:17;3.80;99.90
70076;DHT22;63241;51.056;3.698;2023-04-03T00:45:51;3.80;99.90
70076;DHT22;63241;51.056;3.698;2023-04-03T00:48:22;3.80;99.90
70076;DHT22;63241;51.056;3.698;2023-04-03T00:50:50;3.80;99.90
70076;DHT22;63241;51.056;3.698;2023-04-03T00:53:31;3.80;99.90
70076;DHT22;63241;51.056;3.698;2023-04-03T00:55:56;3.80;99.90
70076;DHT22;63241;51.056;3.698;2023-04-03T00:58:28;3.80;99.90
70076;DHT22;63241;51.056;3.698;2023-04-03T01:00:57;3.80;99.90
70076;DHT22;63241;51.056;3.698;2023-04-03T01:03:25;3.80;99.90
70076;DHT22;63241;51.056;3.698;2023-04-03T01:05:53;3.80;99.90
70076;DHT22;63241;51.056;3.698;2023-04-03T01:08:21;3.80;99.90
70076;DHT22;63241;51.056;3.698;2023-04-03T01:10:49;3.80;99.90
70076;DHT22;63241;51.056;3.698;2023-04-03T01:13:25;3.80;99.90
70076;DHT22;63241;51.056;3.698;2023-04-03T01:15:53;3.80;99.90
70076;DHT22;63241;51.056;3.698;2023-04-03T01:18:22;3.80;99.90
70076;DHT22;63241;51.056;3.698;2023-04-03T01:23:48;3.80;99.90
70076;DHT22;63241;51.056;3.698;2023-04-03T01:26:14;3.80;99.90
70076;DHT22;63241;51.056;3.698;2023-04-03T01:28:41;3.80;99.90
70076;DHT22;63241;51.056;3.698;2023-04-03T01:31:27;3.80;99.90
70076;DHT22;63241;51.056;3.698;2023-04-03T01:33:55;3.80;99.90
70076;DHT22;63241;51.056;3.698;2023-04-03T01:36:30;3.70;99.90
70076;DHT22;63241;51.056;3.698;2023-04-03T01:38:54;3.70;99.90
70076;DHT22;63241;51.056;3.698;2023-04-03T01:41:22;3.70;99.90
70076;DHT22;63241;51.056;3.698;2023-04-03T01:43:50;3.70;99.90
70076;DHT22;63241;51.056;3.698;2023-04-03T01:46:18;3.70;99.90
70076;DHT22;63241;51.056;3.698;2023-04-03T01:48:47;3.70;99.90
70076;DHT22;63241;51.056;3.698;2023-04-03T01:51:14;3.70;99.90
70076;DHT22;63241;51.056;3.698;2023-04-03T01:53:42;3.70;99.90
70076;DHT22;63241;51.056;3.698;2023-04-03T01:56:10;3.60;99.90
70076;DHT22;63241;51.056;3.698;2023-04-03T01:58:38;3.70;99.90
70076;DHT22;63241;51.056;3.698;2023-04-03T02:01:06;3.70;99.90
70076;DHT22;63241;51.056;3.698;2023-04-03T02:03:33;3.70;99.90
70076;DHT22;63241;51.056;3.698;2023-04-03T02:06:01;3.70;99.90
70076;DHT22;63241;51.056;3.698;2023-04-03T02:08:29;3.60;99.90
70076;DHT22;63241;51.056;3.698;2023-04-03T02:10:56;3.70;99.90
70076;DHT22;63241;51.056;3.698;2023-04-03T02:13:24;3.70;99.90
70076;DHT22;63241;51.056;3.698;2023-04-03T02:15:52;3.60;99.90
70076;DHT22;63241;51.056;3.698;2023-04-03T02:18:20;3.60;99.90
70076;DHT22;63241;51.056;3.698;2023-04-03T02:20:48;3.60;99.90
70076;DHT22;63241;51.056;3.698;2023-04-03T02:23:15;3.60;99.90
70076;DHT22;63241;51.056;3.698;2023-04-03T02:25:43;3.60;99.90
70076;DHT22;63241;51.056;3.698;2023-04-03T02:28:11;3.60;99.90
70076;DHT22;63241;51.056;3.698;2023-04-03T02:30:39;3.60;99.90
70076;DHT22;63241;51.056;3.698;2023-04-03T02:33:06;3.60;99.90
70076;DHT22;63241;51.056;3.698;2023-04-03T02:35:34;3.50;99.90
70076;DHT22;63241;51.056;3.698;2023-04-03T02:38:03;3.50;99.90
70076;DHT22;63241;51.056;3.698;2023-04-03T07:59:31;24.60;30.70
70076;DHT22;63241;51.056;3.698;2023-04-03T08:01:59;24.50;30.40
70076;DHT22;63241;51.056;3.698;2023-04-03T08:04:26;24.50;30.00
70076;DHT22;63241;51.056;3.698;2023-04-03T08:06:54;25.00;29.40
70076;DHT22;63241;51.056;3.698;2023-04-03T08:13:26;25.60;29.60
70076;DHT22;63241;51.056;3.698;2023-04-03T08:15:53;26.70;29.10
70076;DHT22;63241;51.056;3.698;2023-04-03T08:18:24;26.90;29.20
70076;DHT22;63241;51.056;3.698;2023-04-03T08:20:52;26.60;28.20
70076;DHT22;63241;51.056;3.698;2023-04-03T08:23:41;27.10;27.90
70076;DHT22;63241;51.056;3.698;2023-04-03T09:25:31;24.80;27.80
70076;DHT22;63241;51.056;3.698;2023-04-03T09:28:01;25.50;28.50
70076;DHT22;63241;51.056;3.698;2023-04-03T09:30:29;25.40;28.80
70076;DHT22;63241;51.056;3.698;2023-04-03T09:32:57;25.40;28.20
70076;DHT22;63241;51.056;3.698;2023-04-03T09:39:10;24.80;28.00
70076;DHT22;63241;51.056;3.698;2023-04-03T09:42:05;24.70;28.90
70076;DHT22;63241;51.056;3.698;2023-04-03T09:44:36;25.00;29.00
70076;DHT22;63241;51.056;3.698;2023-04-03T09:47:25;24.70;27.90
70076;DHT22;63241;51.056;3.698;2023-04-03T09:56:27;25.40;26.30
70076;DHT22;63241;51.056;3.698;2023-04-03T09:58:40;24.60;28.50
70076;DHT22;63241;51.056;3.698;2023-04-03T10:01:22;24.20;27.80
70076;DHT22;63241;51.056;3.698;2023-04-03T10:12:43;24.30;28.00
70076;DHT22;63241;51.056;3.698;2023-04-03T10:15:13;23.30;27.60
70076;DHT22;63241;51.056;3.698;2023-04-03T10:18:07;23.40;28.70
70076;DHT22;63241;51.056;3.698;2023-04-03T10:21:08;23.20;29.10
70076;DHT22;63241;51.056;3.698;2023-04-03T10:23:43;22.60;29.70
70076;DHT22;63241;51.056;3.698;2023-04-03T10:26:24;22.80;29.20
70076;DHT22;63241;51.056;3.698;2023-04-03T10:29:02;22.40;30.40
70076;DHT22;63241;51.056;3.698;2023-04-03T10:34:53;22.90;29.40
70076;DHT22;63241;51.056;3.698;2023-04-03T10:37:25;23.00;30.40
70076;DHT22;63241;51.056;3.698;2023-04-03T10:42:46;23.80;29.20
70076;DHT22;63241;51.056;3.698;2023-04-03T10:51:52;24.40;28.40
70076;DHT22;63241;51.056;3.698;2023-04-03T10:54:34;23.70;27.50
70076;DHT22;63241;51.056;3.698;2023-04-03T10:57:19;23.50;29.90
70076;DHT22;63241;51.056;3.698;2023-04-03T11:00:18;23.60;28.00
70076;DHT22;63241;51.056;3.698;2023-04-03T11:02:55;22.80;27.50
70076;DHT22;63241;51.056;3.698;2023-04-03T11:05:30;22.70;26.50
70076;DHT22;63241;51.056;3.698;2023-04-03T11:07:53;22.70;29.90
70076;DHT22;63241;51.056;3.698;2023-04-03T11:17:11;24.00;28.70
70076;DHT22;63241;51.056;3.698;2023-04-03T11:20:43;24.10;27.90
70076;DHT22;63241;51.056;3.698;2023-04-03T11:22:25;23.40;27.20
70076;DHT22;63241;51.056;3.698;2023-04-03T11:28:59;23.30;27.80
70076;DHT22;63241;51.056;3.698;2023-04-03T11:34:20;24.10;29.60
70076;DHT22;63241;51.056;3.698;2023-04-03T11:36:55;23.70;27.30
70076;DHT22;63241;51.056;3.698;2023-04-03T11:45:50;23.50;27.70
70076;DHT22;63241;51.056;3.698;2023-04-03T11:48:43;23.00;25.50
70076;DHT22;63241;51.056;3.698;2023-04-03T12:54:47;21.90;29.60
70076;DHT22;63241;51.056;3.698;2023-04-03T12:57:22;22.80;29.40
70076;DHT22;63241;51.056;3.698;2023-04-03T13:03:33;23.90;28.70
70076;DHT22;63241;51.056;3.698;2023-04-03T13:06:02;23.30;25.80
70076;DHT22;63241;51.056;3.698;2023-04-03T13:08:31;22.50;28.20
70076;DHT22;63241;51.056;3.698;2023-04-03T13:24:19;20.90;28.00
70076;DHT22;63241;51.056;3.698;2023-04-03T13:33:23;21.50;26.40
70076;DHT22;63241;51.056;3.698;2023-04-03T13:36:00;20.50;27.60
70076;DHT22;63241;51.056;3.698;2023-04-03T13:38:27;20.00;28.90
70076;DHT22;63241;51.056;3.698;2023-04-03T13:49:45;21.40;25.70
70076;DHT22;63241;51.056;3.698;2023-04-03T13:52:43;20.60;26.60
70076;DHT22;63241;51.056;3.698;2023-04-03T13:59:30;19.90;26.90
70076;DHT22;63241;51.056;3.698;2023-04-03T14:01:48;19.20;27.40
70076;DHT22;63241;51.056;3.698;2023-04-03T14:04:25;19.60;28.00
70076;DHT22;63241;51.056;3.698;2023-04-03T14:06:55;20.60;27.90
70076;DHT22;63241;51.056;3.698;2023-04-03T14:09:33;21.00;26.70
70076;DHT22;63241;51.056;3.698;2023-04-03T14:12:26;20.60;24.50
70076;DHT22;63241;51.056;3.698;2023-04-03T14:14:51;19.70;25.60
70076;DHT22;63241;51.056;3.698;2023-04-03T14:17:21;19.00;25.80
70076;DHT22;63241;51.056;3.698;2023-04-03T14:19:50;18.50;27.20
70076;DHT22;63241;51.056;3.698;2023-04-03T14:26:08;18.60;27.70
70076;DHT22;63241;51.056;3.698;2023-04-03T14:28:34;18.20;28.30
70076;DHT22;63241;51.056;3.698;2023-04-03T14:31:02;17.30;27.50
70076;DHT22;63241;51.056;3.698;2023-04-03T14:33:29;16.60;31.00
70076;DHT22;63241;51.056;3.698;2023-04-03T14:39:45;15.60;31.60
70076;DHT22;63241;51.056;3.698;2023-04-03T14:42:16;15.10;30.60
70076;DHT22;63241;51.056;3.698;2023-04-03T14:44:44;14.70;31.20
70076;DHT22;63241;51.056;3.698;2023-04-03T14:47:14;14.20;31.90
70076;DHT22;63241;51.056;3.698;2023-04-03T14:53:33;13.90;32.60
70076;DHT22;63241;51.056;3.698;2023-04-03T14:56:01;13.60;33.00
70076;DHT22;63241;51.056;3.698;2023-04-03T14:58:29;13.60;34.50
70076;DHT22;63241;51.056;3.698;2023-04-03T15:00:58;13.50;34.50
70076;DHT22;63241;51.056;3.698;2023-04-03T15:07:35;13.40;35.20
70076;DHT22;63241;51.056;3.698;2023-04-03T15:10:20;13.30;35.80
70076;DHT22;63241;51.056;3.698;2023-04-03T15:12:48;13.20;36.00
70076;DHT22;63241;51.056;3.698;2023-04-03T15:15:18;13.20;36.20
70076;DHT22;63241;51.056;3.698;2023-04-03T15:21:14;13.00;35.40
70076;DHT22;63241;51.056;3.698;2023-04-03T15:23:42;13.00;36.10
70076;DHT22;63241;51.056;3.698;2023-04-03T15:26:09;13.00;35.60
70076;DHT22;63241;51.056;3.698;2023-04-03T15:28:42;12.70;35.10
70076;DHT22;63241;51.056;3.698;2023-04-03T15:31:21;12.60;36.80
70076;DHT22;63241;51.056;3.698;2023-04-03T15:34:09;12.50;36.10
70076;DHT22;63241;51.056;3.698;2023-04-03T15:36:38;12.40;36.00
70076;DHT22;63241;51.056;3.698;2023-04-03T15:39:06;12.30;37.20
70076;DHT22;63241;51.056;3.698;2023-04-03T15:41:34;12.30;37.30
70076;DHT22;63241;51.056;3.698;2023-04-03T15:48:06;12.40;38.00
70076;DHT22;63241;51.056;3.698;2023-04-03T15:50:34;12.40;38.10
70076;DHT22;63241;51.056;3.698;2023-04-03T15:53:02;12.20;36.60
70076;DHT22;63241;51.056;3.698;2023-04-03T15:55:33;12.10;37.40
70076;DHT22;63241;51.056;3.698;2023-04-03T16:02:01;12.00;36.10
70076;DHT22;63241;51.056;3.698;2023-04-03T16:04:29;11.80;37.20
70076;DHT22;63241;51.056;3.698;2023-04-03T16:06:57;11.70;37.30
70076;DHT22;63241;51.056;3.698;2023-04-03T16:09:25;11.70;38.20
70076;DHT22;63241;51.056;3.698;2023-04-03T16:18:01;11.60;37.30
70076;DHT22;63241;51.056;3.698;2023-04-03T16:20:29;11.60;37.50
70076;DHT22;63241;51.056;3.698;2023-04-03T16:22:58;11.60;37.20
70076;DHT22;63241;51.056;3.698;2023-04-03T16:29:10;11.50;37.40
70076;DHT22;63241;51.056;3.698;2023-04-03T16:31:38;11.40;37.20
70076;DHT22;63241;51.056;3.698;2023-04-03T16:34:06;11.40;37.00
70076;DHT22;63241;51.056;3.698;2023-04-03T16:36:33;11.40;36.70
70076;DHT22;63241;51.056;3.698;2023-04-03T16:42:55;11.30;37.70
70076;DHT22;63241;51.056;3.698;2023-04-03T16:45:23;11.20;39.70
70076;DHT22;63241;51.056;3.698;2023-04-03T16:47:51;11.20;38.50
70076;DHT22;63241;51.056;3.698;2023-04-03T16:50:19;11.10;38.20
70076;DHT22;63241;51.056;3.698;2023-04-03T16:56:32;11.00;38.80
70076;DHT22;63241;51.056;3.698;2023-04-03T16:59:00;10.90;38.70
70076;DHT22;63241;51.056;3.698;2023-04-03T17:01:28;10.90;39.30
70076;DHT22;63241;51.056;3.698;2023-04-03T17:03:56;10.90;39.30
70076;DHT22;63241;51.056;3.698;2023-04-03T17:12:36;10.90;39.80
70076;DHT22;63241;51.056;3.698;2023-04-03T17:15:05;10.80;40.00
70076;DHT22;63241;51.056;3.698;2023-04-03T17:17:33;10.80;39.40
